Time;durP1;ratioP1;P1;durP2;ratioP2;P2;SDS_P1;SDS_P2;PMS_P1;PMS_P2;Temp;Humidity;BMP_temperature;BMP_pressure;BME280_temperature;BME280_humidity;BME280_pressure;Samples;Min_cycle;Max_cycle;Signal;HPM_P1;HPM_P2
2022/12/26 00:00:55;;;;;;;0.13;0.13;;;;;;;8.47;100.00;100915.84;4993904;28;20025;-73
2022/12/26 00:03:21;;;;;;;0.15;0.15;;;;;;;8.68;100.00;100934.97;4990339;28;20042;-73
2022/12/26 00:05:46;;;;;;;0.20;0.20;;;;;;;8.59;100.00;100943.63;4993360;28;20070;-74
2022/12/26 00:08:11;;;;;;;0.20;0.20;;;;;;;8.42;100.00;100910.81;4995355;28;20030;-73
2022/12/26 00:10:37;;;;;;;0.10;0.10;;;;;;;8.61;100.00;100939.03;4996954;28;20033;-73
2022/12/26 00:13:02;;;;;;;0.10;0.10;;;;;;;8.69;100.00;100942.88;4992894;28;20029;-73
2022/12/26 00:15:27;;;;;;;0.10;0.10;;;;;;;8.54;100.00;100910.00;4995986;28;20140;-73
2022/12/26 00:17:53;;;;;;;0.10;0.10;;;;;;;8.64;100.00;100928.97;4992301;28;20025;-73
2022/12/26 00:20:18;;;;;;;0.10;0.10;;;;;;;8.66;100.00;100934.22;4979332;28;20025;-73
2022/12/26 00:22:43;;;;;;;0.10;0.10;;;;;;;8.61;100.00;100933.69;4995160;28;20432;-73
2022/12/26 00:25:08;;;;;;;0.17;0.17;;;;;;;8.68;100.00;100949.19;4994456;28;20151;-73
2022/12/26 00:27:34;;;;;;;0.10;0.10;;;;;;;8.69;100.00;100937.53;4981386;28;20030;-73
2022/12/26 00:29:59;;;;;;;0.10;0.10;;;;;;;8.70;100.00;100944.59;4987636;28;20041;-74
2022/12/26 00:32:24;;;;;;;0.10;0.10;;;;;;;8.65;100.00;100960.13;5001206;28;20053;-73
2022/12/26 00:34:50;;;;;;;0.10;0.10;;;;;;;8.67;100.00;100957.34;4995042;28;20034;-73
2022/12/26 00:37:15;;;;;;;0.10;0.10;;;;;;;8.54;100.00;100952.81;4997838;28;20061;-73
2022/12/26 00:39:40;;;;;;;0.10;0.10;;;;;;;8.75;100.00;100986.28;4997249;28;20431;-73
2022/12/26 00:42:05;;;;;;;0.20;0.20;;;;;;;8.77;100.00;100985.19;5004225;28;20128;-73
2022/12/26 00:44:31;;;;;;;0.10;0.10;;;;;;;8.72;100.00;100984.69;5000537;28;20496;-73
2022/12/26 00:46:56;;;;;;;0.10;0.10;;;;;;;8.68;100.00;100991.19;5000054;28;20108;-73
2022/12/26 00:49:21;;;;;;;0.15;0.15;;;;;;;8.68;100.00;100994.72;4997980;28;20137;-73
2022/12/26 00:51:47;;;;;;;0.17;0.17;;;;;;;8.53;100.00;100985.88;4990145;28;20030;-73
2022/12/26 00:54:12;;;;;;;0.20;0.20;;;;;;;8.61;100.00;100992.56;4991405;28;20122;-72
2022/12/26 00:56:37;;;;;;;0.10;0.10;;;;;;;8.71;100.00;100982.97;5002986;28;20034;-73
2022/12/26 00:59:03;;;;;;;0.10;0.10;;;;;;;8.70;100.00;100992.78;4998810;28;20026;-73
2022/12/26 01:01:29;;;;;;;0.10;0.10;;;;;;;8.68;100.00;100993.88;5004394;28;20060;-73
2022/12/26 01:03:55;;;;;;;0.10;0.10;;;;;;;8.78;100.00;101007.47;5001257;28;20140;-72
2022/12/26 01:06:21;;;;;;;0.10;0.10;;;;;;;8.68;100.00;100992.03;5002603;28;20040;-73
2022/12/26 01:08:46;;;;;;;0.10;0.10;;;;;;;8.72;100.00;100992.69;4984955;28;20038;-73
2022/12/26 01:11:13;;;;;;;0.10;0.10;;;;;;;8.81;100.00;101008.13;5001480;28;20058;-72
2022/12/26 01:13:39;;;;;;;0.20;0.20;;;;;;;8.69;100.00;100995.59;5009427;28;20117;-73
2022/12/26 01:16:05;;;;;;;0.10;0.10;;;;;;;8.54;100.00;100974.22;4999465;28;20030;-73
2022/12/26 01:18:31;;;;;;;0.10;0.10;;;;;;;8.69;100.00;101008.97;4997570;28;20036;-74
2022/12/26 01:21:05;;;;;;;0.10;0.10;;;;;;;8.76;100.00;101004.88;4987212;28;20061;-73
2022/12/26 01:23:31;;;;;;;0.20;0.20;;;;;;;8.57;100.00;100985.69;5003906;28;20365;-73
2022/12/26 01:25:56;;;;;;;0.10;0.10;;;;;;;8.54;100.00;101002.81;5004882;28;20487;-73
2022/12/26 01:28:21;;;;;;;0.15;0.15;;;;;;;8.61;100.00;101016.66;5006325;28;20540;-74
2022/12/26 01:30:47;;;;;;;0.13;0.13;;;;;;;8.46;100.00;100989.94;4993938;28;20381;-73
2022/12/26 01:33:12;;;;;;;0.20;0.20;;;;;;;8.62;100.00;101005.81;5004783;28;20061;-73
2022/12/26 01:35:37;;;;;;;0.10;0.10;;;;;;;8.39;100.00;100964.53;5002821;28;20033;-74
2022/12/26 01:38:02;;;;;;;0.10;0.10;;;;;;;8.61;100.00;101003.25;5012113;28;20381;-73
2022/12/26 01:40:28;;;;;;;0.10;0.10;;;;;;;8.35;100.00;100966.53;5003800;28;20077;-73
2022/12/26 01:42:53;;;;;;;0.13;0.13;;;;;;;8.48;100.00;100995.16;5004664;28;20026;-73
2022/12/26 01:45:30;;;;;;;0.20;0.10;;;;;;;8.38;100.00;100979.72;5010924;28;20044;-73
2022/12/26 01:48:00;;;;;;;0.10;0.10;;;;;;;8.47;100.00;100997.00;5016113;28;20097;-73
2022/12/26 01:50:46;;;;;;;0.10;0.10;;;;;;;8.40;100.00;101001.03;5007142;28;20034;-73
2022/12/26 01:53:31;;;;;;;0.10;0.10;;;;;;;8.34;100.00;101004.09;5004988;28;20037;-73
2022/12/26 01:56:01;;;;;;;0.10;0.10;;;;;;;8.15;100.00;100970.53;5000090;28;20080;-73
2022/12/26 01:58:35;;;;;;;0.10;0.10;;;;;;;8.26;100.00;100996.59;5016499;28;20029;-73
2022/12/26 02:01:01;;;;;;;0.20;0.20;;;;;;;8.20;100.00;100996.97;5009364;28;20053;-74
2022/12/26 02:06:12;;;;;;;0.10;0.10;;;;;;;7.87;100.00;100984.84;5005954;28;20091;-73
2022/12/26 02:08:38;;;;;;;0.00;0.00;;;;;;;7.92;100.00;100988.94;5008359;28;20051;-73
2022/12/26 02:11:23;;;;;;;0.10;0.10;;;;;;;8.03;100.00;101009.66;4987438;28;20488;-74
2022/12/26 02:13:49;;;;;;;0.10;0.10;;;;;;;7.90;100.00;100992.66;5005446;28;20049;-72
2022/12/26 02:16:16;;;;;;;0.10;0.10;;;;;;;8.10;100.00;101010.94;5008633;28;20048;-73
2022/12/26 02:18:41;;;;;;;0.10;0.10;;;;;;;8.03;100.00;101017.66;4997485;28;20484;-73
2022/12/26 02:21:36;;;;;;;0.10;0.10;;;;;;;8.04;100.00;101019.38;5003790;28;20053;-73
2022/12/26 02:24:15;;;;;;;;;;;;;;;8.03;100.00;101012.31;4985147;28;20425;-73
2022/12/26 02:26:56;;;;;;;0.10;0.10;;;;;;;8.01;100.00;100995.50;4995557;28;20368;-74
2022/12/26 02:29:34;;;;;;;0.10;0.10;;;;;;;8.05;100.00;100993.50;5013476;28;20041;-73
2022/12/26 02:32:13;;;;;;;0.10;0.10;;;;;;;8.04;100.00;100994.44;4994706;28;20041;-73
2022/12/26 02:34:56;;;;;;;0.10;0.10;;;;;;;8.14;100.00;101019.66;4997960;28;20481;-73
2022/12/26 02:37:41;;;;;;;0.13;0.13;;;;;;;8.26;100.00;101026.00;4997366;28;20034;-73
2022/12/26 02:40:18;;;;;;;0.20;0.20;;;;;;;8.28;100.00;101013.41;4979362;28;20404;-73
2022/12/26 02:43:05;;;;;;;0.10;0.10;;;;;;;8.32;100.00;101014.91;4981264;28;20129;-73
2022/12/26 02:49:00;;;;;;;0.10;0.10;;;;;;;8.31;100.00;101005.19;4998136;28;20065;-73
2022/12/26 03:14:39;;;;;;;0.10;0.10;;;;;;;8.30;100.00;100998.09;4993397;28;20037;-75
2022/12/26 03:17:19;;;;;;;0.10;0.10;;;;;;;8.51;100.00;101008.38;4993061;28;20044;-75
2022/12/26 03:19:59;;;;;;;0.10;0.10;;;;;;;8.29;100.00;100984.81;4993191;28;20033;-74
2022/12/26 03:23:01;;;;;;;0.10;0.10;;;;;;;8.41;100.00;101016.97;4999535;28;20073;-75
2022/12/26 03:28:32;;;;;;;0.10;0.10;;;;;;;8.30;100.00;100995.44;4997151;28;20116;-74
2022/12/26 03:31:00;;;;;;;0.10;0.10;;;;;;;8.48;100.00;101019.25;4983511;28;20464;-74
2022/12/26 03:36:55;;;;;;;0.10;0.10;;;;;;;8.49;100.00;101015.66;4997579;28;20118;-75
2022/12/26 04:20:09;;;;;;;0.10;0.10;;;;;;;8.60;100.00;101063.09;4997929;28;20083;-74
2022/12/26 04:45:51;;;;;;;0.10;0.10;;;;;;;8.11;100.00;101038.56;4998844;28;20441;-75
2022/12/26 04:51:00;;;;;;;0.10;0.10;;;;;;;8.26;100.00;101040.22;4999025;28;20045;-75
2022/12/26 04:53:25;;;;;;;0.10;0.10;;;;;;;8.05;100.00;101039.81;4992459;28;20030;-76
2022/12/26 04:55:51;;;;;;;0.10;0.10;;;;;;;8.13;100.00;101025.06;4998426;28;20072;-74
2022/12/26 04:58:16;;;;;;;0.10;0.10;;;;;;;7.98;100.00;101005.53;4993107;28;20034;-74
2022/12/26 05:00:42;;;;;;;0.15;0.15;;;;;;;7.97;100.00;100999.34;5004607;28;20034;-76
2022/12/26 05:11:26;;;;;;;0.00;0.00;;;;;;;8.02;100.00;101023.09;5002562;28;20032;-75
2022/12/26 05:13:52;;;;;;;0.10;0.10;;;;;;;7.78;100.00;101018.34;5000166;28;20448;-76
2022/12/26 05:30:02;;;;;;;;;;;;;;;8.00;100.00;101049.94;5004084;28;20041;-75
2022/12/26 05:35:12;;;;;;;0.10;0.10;;;;;;;7.64;100.00;101035.25;5003326;28;20045;-75
2022/12/26 05:37:37;;;;;;;0.10;0.10;;;;;;;7.72;100.00;101042.78;5004986;28;20033;-75
2022/12/26 05:40:03;;;;;;;0.10;0.10;;;;;;;7.80;100.00;101043.19;5010110;28;20033;-75
2022/12/26 05:42:28;;;;;;;0.10;0.10;;;;;;;8.02;100.00;101040.00;4996736;28;20049;-75
2022/12/26 05:44:53;;;;;;;0.10;0.10;;;;;;;7.94;100.00;101032.50;5006447;28;20025;-75
2022/12/26 05:47:19;;;;;;;0.10;0.10;;;;;;;7.76;100.00;101021.16;5010759;28;20484;-75
2022/12/26 05:49:44;;;;;;;0.10;0.10;;;;;;;7.84;100.00;101036.69;5006248;28;20040;-75
2022/12/26 05:52:09;;;;;;;0.10;0.10;;;;;;;7.77;100.00;101032.69;5003476;28;20135;-78
2022/12/26 05:54:35;;;;;;;0.10;0.10;;;;;;;7.83;100.00;101013.59;5005552;28;20068;-76
2022/12/26 05:57:00;;;;;;;0.10;0.10;;;;;;;7.49;100.00;100981.84;5003617;28;20397;-76
2022/12/26 05:59:26;;;;;;;0.10;0.10;;;;;;;7.88;100.00;101008.81;5006013;28;20467;-76
2022/12/26 06:01:51;;;;;;;0.10;0.10;;;;;;;7.74;100.00;101001.66;5002239;28;20025;-76
2022/12/26 06:04:17;;;;;;;0.00;0.00;;;;;;;7.54;100.00;100996.72;5003102;28;20080;-75
2022/12/26 06:06:42;;;;;;;0.10;0.10;;;;;;;7.46;100.00;100987.38;5006940;28;20116;-76
2022/12/26 06:09:07;;;;;;;0.10;0.10;;;;;;;7.60;100.00;101009.69;5006427;28;20030;-75
2022/12/26 06:11:33;;;;;;;0.10;0.10;;;;;;;7.69;100.00;101006.44;5003409;28;20088;-76
2022/12/26 06:13:58;;;;;;;0.10;0.10;;;;;;;7.68;100.00;101011.91;4998700;28;20037;-76
2022/12/26 06:16:24;;;;;;;0.10;0.10;;;;;;;7.57;100.00;100991.16;4987750;28;20151;-75
2022/12/26 06:18:49;;;;;;;0.10;0.10;;;;;;;7.69;100.00;101014.47;5002301;28;20038;-78
2022/12/26 06:21:17;;;;;;;0.10;0.10;;;;;;;7.84;100.00;101014.44;5002113;28;20727;-75
2022/12/26 06:23:42;;;;;;;0.10;0.10;;;;;;;7.75;100.00;101019.44;5002707;28;20484;-75
2022/12/26 06:26:09;;;;;;;0.10;0.10;;;;;;;7.59;100.00;101021.31;5002428;28;20795;-76
2022/12/26 06:28:35;;;;;;;0.10;0.10;;;;;;;7.60;100.00;101042.63;4996081;28;20030;-76
2022/12/26 06:31:02;;;;;;;0.10;0.10;;;;;;;7.79;100.00;101044.13;4999618;28;20668;-75
2022/12/26 06:33:27;;;;;;;0.10;0.10;;;;;;;7.81;100.00;101036.88;5001800;28;20026;-75
2022/12/26 06:35:53;;;;;;;0.10;0.10;;;;;;;7.72;100.00;101027.63;4999639;28;20026;-75
2022/12/26 06:38:18;;;;;;;0.10;0.10;;;;;;;7.76;100.00;101029.16;5003776;28;20068;-76
2022/12/26 06:40:43;;;;;;;0.10;0.10;;;;;;;8.00;100.00;101055.28;4997687;28;20113;-74
2022/12/26 06:43:09;;;;;;;0.10;0.10;;;;;;;7.99;100.00;101052.69;5001283;28;20044;-76
2022/12/26 06:45:35;;;;;;;0.10;0.10;;;;;;;7.96;100.00;101059.97;5005279;28;20040;-75
2022/12/26 06:48:00;;;;;;;0.10;0.10;;;;;;;7.72;100.00;101027.63;5001958;28;20030;-75
2022/12/26 06:50:26;;;;;;;0.10;0.10;;;;;;;7.93;100.00;101075.34;5005732;28;20113;-74
2022/12/26 06:52:51;;;;;;;0.10;0.10;;;;;;;7.77;100.00;101030.88;5008979;28;20038;-75
2022/12/26 06:55:17;;;;;;;0.10;0.10;;;;;;;8.00;100.00;101068.66;5014800;28;20061;-74
2022/12/26 06:57:42;;;;;;;0.10;0.10;;;;;;;8.01;100.00;101073.06;5022687;28;20062;-75
2022/12/26 07:00:08;;;;;;;0.10;0.10;;;;;;;7.82;100.00;101057.31;5015420;28;20025;-76
2022/12/26 07:02:33;;;;;;;0.10;0.10;;;;;;;7.84;100.00;101052.72;5013931;28;20053;-75
2022/12/26 07:04:59;;;;;;;0.10;0.10;;;;;;;7.82;100.00;101049.28;5003075;28;20126;-76
2022/12/26 07:07:24;;;;;;;0.10;0.10;;;;;;;7.62;100.00;101026.47;5000251;28;20031;-75
2022/12/26 07:09:49;;;;;;;0.10;0.10;;;;;;;7.64;100.00;101030.78;4998997;28;20053;-76
2022/12/26 07:12:15;;;;;;;0.10;0.10;;;;;;;7.69;100.00;101049.19;4987924;28;20552;-75
2022/12/26 07:14:40;;;;;;;0.10;0.10;;;;;;;7.53;100.00;101035.94;4996257;28;20128;-77
2022/12/26 07:17:05;;;;;;;0.10;0.10;;;;;;;7.78;100.00;101053.09;5009339;28;20033;-75
2022/12/26 07:19:31;;;;;;;0.10;0.10;;;;;;;7.75;100.00;101067.53;5005172;28;20030;-76
2022/12/26 07:21:56;;;;;;;0.10;0.10;;;;;;;7.66;100.00;101060.06;5009224;28;20018;-75
2022/12/26 07:24:22;;;;;;;0.10;0.10;;;;;;;7.64;100.00;101051.28;5000674;28;20057;-77
2022/12/26 07:26:48;;;;;;;0.10;0.10;;;;;;;7.88;100.00;101067.63;4997208;28;20037;-76
2022/12/26 07:29:14;;;;;;;0.10;0.10;;;;;;;7.77;100.00;101062.06;5001188;28;20052;-76
2022/12/26 07:31:40;;;;;;;0.10;0.10;;;;;;;7.78;100.00;101069.16;5000193;28;20556;-75
2022/12/26 07:34:05;;;;;;;0.10;0.10;;;;;;;7.50;100.00;101050.34;5000830;28;20061;-76
2022/12/26 07:36:31;;;;;;;0.10;0.10;;;;;;;7.78;100.00;101080.72;5000913;28;20053;-75
2022/12/26 07:38:56;;;;;;;0.10;0.10;;;;;;;7.64;100.00;101086.91;5005218;28;20057;-76
2022/12/26 07:44:08;;;;;;;0.10;0.10;;;;;;;7.79;100.00;101095.81;5002695;28;20052;-76
2022/12/26 07:46:33;;;;;;;0.00;0.00;;;;;;;7.70;100.00;101077.66;5013401;28;20040;-76
2022/12/26 07:48:58;;;;;;;0.10;0.10;;;;;;;7.59;100.00;101067.63;5007897;28;20026;-76
2022/12/26 07:51:24;;;;;;;0.10;0.10;;;;;;;7.59;100.00;101088.13;5005032;28;20029;-76
2022/12/26 07:53:49;;;;;;;0.10;0.10;;;;;;;7.48;100.00;101070.97;5006004;28;20068;-76
2022/12/26 07:56:15;;;;;;;0.10;0.10;;;;;;;7.65;100.00;101093.09;4999889;28;20124;-75
2022/12/26 07:58:40;;;;;;;0.10;0.10;;;;;;;7.48;100.00;101083.44;5000261;28;20140;-76
2022/12/26 08:01:06;;;;;;;0.10;0.10;;;;;;;7.55;100.00;101091.97;4999038;28;20025;-76
2022/12/26 08:03:33;;;;;;;0.10;0.10;;;;;;;7.76;100.00;101087.97;5010279;28;20129;-75
2022/12/26 08:05:58;;;;;;;0.10;0.10;;;;;;;7.69;100.00;101075.94;4996267;28;20101;-76
2022/12/26 08:08:24;;;;;;;0.10;0.10;;;;;;;7.72;100.00;101097.13;4997005;28;20036;-76
2022/12/26 08:11:00;;;;;;;0.10;0.10;;;;;;;7.87;100.00;101091.75;4996783;28;20411;-76
2022/12/26 08:13:27;;;;;;;0.10;0.10;;;;;;;7.50;100.00;101085.09;4990898;28;20069;-76
2022/12/26 08:15:52;;;;;;;0.10;0.10;;;;;;;7.86;100.00;101096.28;4995265;28;20052;-77
2022/12/26 08:18:17;;;;;;;0.10;0.10;;;;;;;7.64;100.00;101099.41;4994799;28;20032;-77
2022/12/26 08:20:43;;;;;;;0.10;0.10;;;;;;;7.63;100.00;101103.03;4993760;28;20506;-76
2022/12/26 08:23:08;;;;;;;0.10;0.10;;;;;;;7.76;100.00;101106.69;4999977;28;20021;-76
2022/12/26 08:25:34;;;;;;;0.10;0.10;;;;;;;7.69;100.00;101091.97;4999242;28;20076;-76
2022/12/26 08:27:59;;;;;;;0.10;0.10;;;;;;;7.76;100.00;101108.47;4995759;28;20034;-76
2022/12/26 08:30:24;;;;;;;0.10;0.10;;;;;;;7.74;100.00;101089.88;4998242;28;20041;-75
2022/12/26 08:32:50;;;;;;;0.10;0.10;;;;;;;7.90;100.00;101115.63;5000864;28;20121;-75
2022/12/26 08:35:16;;;;;;;0.10;0.10;;;;;;;7.89;100.00;101082.72;5001376;28;20029;-75
2022/12/26 08:37:41;;;;;;;0.10;0.10;;;;;;;8.07;100.00;101096.75;4999512;28;20053;-78
2022/12/26 08:40:07;;;;;;;0.10;0.10;;;;;;;8.16;100.00;101097.97;5004912;28;20384;-76
2022/12/26 08:42:32;;;;;;;0.10;0.10;;;;;;;8.14;100.00;101099.00;5001029;28;20034;-76
2022/12/26 08:44:58;;;;;;;0.10;0.10;;;;;;;8.26;100.00;101074.16;5001482;28;20034;-75
2022/12/26 08:47:26;;;;;;;0.10;0.10;;;;;;;8.64;100.00;101097.59;5005123;28;20555;-76
2022/12/26 08:49:51;;;;;;;0.10;0.10;;;;;;;8.45;100.00;101099.72;5001882;28;20103;-77
2022/12/26 08:52:17;;;;;;;0.10;0.10;;;;;;;8.35;100.00;101091.44;5000625;28;20079;-77
2022/12/26 08:54:42;;;;;;;0.10;0.10;;;;;;;8.57;100.00;101103.44;5000032;28;20042;-78
2022/12/26 08:57:08;;;;;;;0.10;0.10;;;;;;;8.47;100.00;101101.34;5001579;28;20030;-75
2022/12/26 08:59:34;;;;;;;0.10;0.10;;;;;;;8.50;100.00;101135.94;5001213;28;20129;-77
2022/12/26 09:01:59;;;;;;;0.10;0.10;;;;;;;8.39;100.00;101112.53;4999935;28;20028;-77
2022/12/26 09:04:24;;;;;;;0.10;0.10;;;;;;;8.53;100.00;101132.25;5005516;28;20365;-75
2022/12/26 09:06:50;;;;;;;0.10;0.10;;;;;;;8.63;100.00;101109.25;4999920;28;20030;-77
2022/12/26 09:09:15;;;;;;;0.15;0.15;;;;;;;8.92;100.00;101135.09;4986532;28;20026;-76
2022/12/26 09:11:41;;;;;;;0.10;0.10;;;;;;;9.29;100.00;101133.47;4998275;28;20041;-77
2022/12/26 09:14:06;;;;;;;0.10;0.10;;;;;;;9.41;100.00;101138.94;5014365;28;20546;-77
2022/12/26 09:16:45;;;;;;;0.10;0.10;;;;;;;9.11;100.00;101107.94;4998339;28;20045;-77
2022/12/26 09:19:16;;;;;;;0.00;0.00;;;;;;;9.02;100.00;101117.44;5015278;28;20021;-76
2022/12/26 09:21:42;;;;;;;0.00;0.00;;;;;;;9.14;100.00;101143.41;4982633;28;20384;-76
2022/12/26 09:24:13;;;;;;;0.10;0.10;;;;;;;9.03;100.00;101129.84;5002101;28;20026;-72
2022/12/26 09:26:38;;;;;;;0.10;0.10;;;;;;;8.98;100.00;101123.97;4985110;28;20080;-74
2022/12/26 09:29:04;;;;;;;0.10;0.10;;;;;;;9.12;100.00;101131.09;4998588;28;20479;-76
2022/12/26 09:31:31;;;;;;;0.10;0.10;;;;;;;9.17;100.00;101158.41;4996366;28;20038;-72
2022/12/26 09:33:57;;;;;;;0.10;0.10;;;;;;;9.08;100.00;101169.75;4999481;28;20041;-75
2022/12/26 09:36:25;;;;;;;0.10;0.10;;;;;;;9.12;100.00;101163.22;4998913;28;20472;-74
2022/12/26 09:38:52;;;;;;;0.10;0.10;;;;;;;9.11;100.00;101170.38;5005145;28;20040;-73
2022/12/26 09:41:52;;;;;;;0.10;0.10;;;;;;;9.08;100.00;101173.28;4983993;28;20026;-76
2022/12/26 09:44:42;;;;;;;0.10;0.10;;;;;;;9.08;100.00;101159.03;5000781;28;20026;-75
2022/12/26 09:47:33;;;;;;;0.10;0.10;;;;;;;8.96;100.00;101172.25;4996975;28;20137;-75
2022/12/26 09:50:08;;;;;;;0.10;0.10;;;;;;;9.14;100.00;101180.91;4978057;28;20072;-74
2022/12/26 09:52:46;;;;;;;0.10;0.10;;;;;;;9.13;100.00;101183.69;5014940;28;20064;-77
2022/12/26 09:55:36;;;;;;;0.10;0.10;;;;;;;9.19;100.00;101175.22;4996595;28;20042;-75
2022/12/26 09:58:10;;;;;;;0.10;0.10;;;;;;;9.30;100.00;101179.88;5015363;28;20180;-74
2022/12/26 10:00:44;;;;;;;0.10;0.10;;;;;;;9.34;100.00;101169.81;4997060;28;20036;-75
2022/12/26 10:03:10;;;;;;;0.10;0.10;;;;;;;9.14;100.00;101163.97;4998736;28;20026;-75
2022/12/26 10:05:50;;;;;;;0.10;0.10;;;;;;;9.27;100.00;101180.94;5000079;28;20026;-74
2022/12/26 10:08:26;;;;;;;0.10;0.10;;;;;;;9.05;100.00;101140.47;4995413;28;20026;-74
2022/12/26 10:11:02;;;;;;;0.10;0.10;;;;;;;9.20;100.00;101174.28;5013337;28;20125;-74
2022/12/26 10:13:37;;;;;;;0.10;0.10;;;;;;;8.97;100.00;101160.59;4999006;28;20037;-73
2022/12/26 10:16:32;;;;;;;0.10;0.10;;;;;;;9.18;100.00;101184.22;4996563;28;20021;-74
2022/12/26 10:19:09;;;;;;;0.10;0.10;;;;;;;9.05;100.00;101175.31;5001423;28;20060;-75
2022/12/26 10:22:02;;;;;;;0.10;0.10;;;;;;;8.91;100.00;101181.56;4994432;28;20030;-73
2022/12/26 10:24:29;;;;;;;0.10;0.10;;;;;;;8.94;100.00;101198.28;4993088;28;20084;-77
2022/12/26 10:27:16;;;;;;;0.10;0.10;;;;;;;8.89;100.00;101237.88;4987672;28;20045;-73
2022/12/26 10:29:47;;;;;;;0.03;0.03;;;;;;;8.59;100.00;101221.97;4998189;28;20108;-75
2022/12/26 10:32:36;;;;;;;0.10;0.10;;;;;;;8.36;100.00;101264.38;5012583;28;20033;-76
2022/12/26 10:35:20;;;;;;;0.10;0.10;;;;;;;8.06;100.00;101223.38;4996914;28;20065;-73
2022/12/26 10:37:46;;;;;;;0.15;0.15;;;;;;;8.01;100.00;101249.53;4995475;28;20952;-73
2022/12/26 10:40:28;;;;;;;0.10;0.10;;;;;;;7.96;100.00;101246.28;5002005;28;20045;-72
2022/12/26 10:42:56;;;;;;;0.10;0.10;;;;;;;7.72;100.00;101244.13;4994985;28;20069;-74
2022/12/26 10:45:44;;;;;;;0.10;0.10;;;;;;;7.89;100.00;101260.97;4983239;28;20388;-72
2022/12/26 10:48:11;;;;;;;0.10;0.10;;;;;;;7.97;100.00;101264.06;4998529;28;20037;-72
2022/12/26 10:50:39;;;;;;;0.10;0.10;;;;;;;7.80;100.00;101241.00;4999253;28;20435;-72
2022/12/26 10:53:05;;;;;;;0.20;0.20;;;;;;;7.92;100.00;101271.47;4999489;28;20124;-73
2022/12/26 10:55:33;;;;;;;0.15;0.15;;;;;;;8.03;100.00;101277.06;5003163;28;20197;-72
2022/12/26 10:58:21;;;;;;;0.10;0.10;;;;;;;8.14;100.00;101273.72;4999947;28;20501;-72
2022/12/26 11:00:47;;;;;;;0.10;0.10;;;;;;;8.47;100.00;101267.28;4997050;28;20523;-72
2022/12/26 11:03:15;;;;;;;0.10;0.10;;;;;;;8.63;100.00;101283.22;4998547;28;20208;-73
2022/12/26 11:05:47;;;;;;;0.10;0.10;;;;;;;8.54;100.00;101287.34;4998613;28;20029;-72
2022/12/26 11:08:36;;;;;;;0.20;0.20;;;;;;;8.30;100.00;101289.72;4997143;28;20026;-72
2022/12/26 11:11:05;;;;;;;0.10;0.10;;;;;;;8.04;100.00;101273.44;5013938;28;20036;-72
2022/12/26 11:13:41;;;;;;;0.10;0.10;;;;;;;8.07;100.00;101301.78;4999528;28;20407;-72
2022/12/26 11:16:07;;;;;;;0.13;0.10;;;;;;;7.92;100.00;101307.13;5012963;28;20097;-73
2022/12/26 11:18:35;;;;;;;0.10;0.10;;;;;;;7.99;100.00;101307.59;4995396;28;20026;-73
2022/12/26 11:21:31;;;;;;;0.10;0.10;;;;;;;8.17;100.00;101323.50;4997242;28;20038;-73
2022/12/26 11:24:22;;;;;;;0.10;0.10;;;;;;;8.10;100.00;101323.84;4987884;28;20082;-75
2022/12/26 11:26:48;;;;;;;0.10;0.10;;;;;;;7.80;100.00;101342.56;4994772;28;20077;-72
2022/12/26 11:29:17;;;;;;;0.10;0.10;;;;;;;7.72;100.00;101347.50;4993253;28;20456;-73
2022/12/26 11:31:56;;;;;;;0.10;0.10;;;;;;;7.40;100.00;101337.72;4997590;28;20072;-72
2022/12/26 11:34:37;;;;;;;0.10;0.10;;;;;;;7.39;100.00;101359.19;4994238;28;20120;-74
2022/12/26 11:37:03;;;;;;;0.10;0.10;;;;;;;7.49;100.00;101347.88;4994345;28;20038;-73
2022/12/26 11:39:35;;;;;;;0.13;0.13;;;;;;;7.55;100.00;101361.84;4996929;28;20037;-73
2022/12/26 11:42:08;;;;;;;0.15;0.15;;;;;;;7.45;100.00;101364.16;4994379;28;20030;-74
2022/12/26 11:44:35;;;;;;;0.20;0.20;;;;;;;7.95;100.00;101373.75;4997993;28;20018;-72
2022/12/26 11:47:06;;;;;;;0.20;0.20;;;;;;;8.43;100.00;101374.56;4993990;28;20034;-73
2022/12/26 11:49:37;;;;;;;0.10;0.10;;;;;;;8.54;100.00;101373.00;4995853;28;20502;-73
2022/12/26 11:52:38;;;;;;;0.20;0.20;;;;;;;8.59;100.00;101379.88;4996864;28;20030;-72
2022/12/26 11:55:23;;;;;;;0.10;0.10;;;;;;;8.76;100.00;101377.03;4982938;28;20080;-72
2022/12/26 11:58:07;;;;;;;0.20;0.20;;;;;;;8.48;100.00;101383.19;4994323;28;20627;-72
2022/12/26 12:00:35;;;;;;;0.20;0.20;;;;;;;8.60;100.00;101384.28;4995674;28;20033;-73
2022/12/26 12:03:02;;;;;;;0.10;0.10;;;;;;;8.51;100.00;101377.69;4992222;28;20369;-73
2022/12/26 12:05:27;;;;;;;0.15;0.15;;;;;;;8.05;100.00;101376.78;4995513;28;20034;-75
2022/12/26 12:08:04;;;;;;;0.20;0.20;;;;;;;8.44;100.00;101387.00;4997343;28;20032;-72
2022/12/26 12:10:41;;;;;;;0.10;0.10;;;;;;;8.14;100.00;101394.09;4989830;28;20485;-73
2022/12/26 12:13:25;;;;;;;0.10;0.10;;;;;;;8.00;100.00;101404.72;4993965;28;20053;-74
2022/12/26 12:16:01;;;;;;;0.10;0.10;;;;;;;8.13;100.00;101403.06;4995337;28;20036;-74
2022/12/26 12:19:01;;;;;;;0.20;0.20;;;;;;;8.86;100.00;101401.44;5012304;28;20560;-74
2022/12/26 12:21:32;;;;;;;0.20;0.20;;;;;;;9.34;100.00;101405.66;5013651;28;20034;-74
2022/12/26 12:24:42;;;;;;;0.10;0.10;;;;;;;9.83;100.00;101391.72;4997580;28;20510;-75
2022/12/26 12:27:19;;;;;;;0.10;0.10;;;;;;;9.33;100.00;101414.63;4979461;28;20045;-75
2022/12/26 12:29:55;;;;;;;0.10;0.10;;;;;;;8.51;100.00;101417.84;4998401;28;20030;-74
2022/12/26 12:32:46;;;;;;;0.10;0.10;;;;;;;8.21;100.00;101416.84;4993149;28;20470;-75
2022/12/26 12:35:25;;;;;;;0.10;0.10;;;;;;;8.58;100.00;101411.16;4999567;28;20112;-74
2022/12/26 12:38:07;;;;;;;0.10;0.10;;;;;;;8.63;100.00;101418.91;5000375;28;20120;-75
2022/12/26 12:41:05;;;;;;;0.10;0.10;;;;;;;8.40;100.00;101389.84;5002380;28;20040;-74
2022/12/26 12:43:49;;;;;;;0.10;0.10;;;;;;;8.13;100.00;101399.50;4997476;28;20034;-75
2022/12/26 12:46:23;;;;;;;0.10;0.10;;;;;;;8.11;100.00;101419.19;4991803;28;20038;-73
2022/12/26 12:49:25;;;;;;;0.13;0.13;;;;;;;7.97;100.00;101408.44;4994537;28;20587;-74
2022/12/26 12:52:12;;;;;;;0.10;0.10;;;;;;;7.79;100.00;101408.56;4995994;28;20081;-74
2022/12/26 12:54:48;;;;;;;0.10;0.10;;;;;;;7.71;100.00;101420.59;4976568;28;20034;-74
2022/12/26 12:57:13;;;;;;;0.10;0.10;;;;;;;7.81;100.00;101429.84;5009876;28;20330;-73
2022/12/26 12:59:59;;;;;;;0.10;0.10;;;;;;;7.90;100.00;101434.69;4996730;28;20943;-74
2022/12/26 13:02:32;;;;;;;0.10;0.10;;;;;;;8.05;100.00;101438.28;4991570;28;20029;-74
2022/12/26 13:05:11;;;;;;;0.10;0.10;;;;;;;8.35;100.00;101433.91;4995526;28;20599;-74
2022/12/26 13:07:39;;;;;;;0.10;0.10;;;;;;;7.94;100.00;101430.88;5011336;28;20030;-74
2022/12/26 13:10:17;;;;;;;0.10;0.10;;;;;;;7.48;100.00;101422.75;4994557;28;20489;-75
2022/12/26 13:12:44;;;;;;;0.10;0.10;;;;;;;7.41;100.00;101432.09;5000684;28;20038;-75
2022/12/26 13:15:22;;;;;;;0.10;0.10;;;;;;;7.40;100.00;101425.03;5001908;28;20481;-74
2022/12/26 13:17:52;;;;;;;0.10;0.10;;;;;;;7.37;100.00;101433.19;5000398;28;20839;-74
2022/12/26 13:20:25;;;;;;;0.10;0.10;;;;;;;7.36;100.00;101448.34;4987316;28;20056;-74
2022/12/26 13:25:47;;;;;;;0.13;0.13;;;;;;;6.81;100.00;101436.16;4993736;28;20065;-75
2022/12/26 13:28:20;;;;;;;0.10;0.10;;;;;;;6.81;100.00;101431.66;4996783;28;20484;-73
2022/12/26 13:30:51;;;;;;;0.20;0.20;;;;;;;6.92;100.00;101459.63;4995471;28;20030;-74
2022/12/26 13:33:17;;;;;;;0.10;0.10;;;;;;;6.72;100.00;101458.84;4999872;28;20036;-74
2022/12/26 13:35:51;;;;;;;0.10;0.10;;;;;;;6.52;100.00;101463.38;5001955;28;20034;-76
2022/12/26 13:38:17;;;;;;;0.10;0.10;;;;;;;6.40;100.00;101450.69;4999479;28;20409;-73
2022/12/26 13:44:04;;;;;;;0.10;0.10;;;;;;;6.77;100.00;101464.78;5009074;28;20048;-74
2022/12/26 13:46:43;;;;;;;;;;;;;;;6.62;100.00;101478.94;5009855;28;20044;-74
2022/12/26 13:49:34;;;;;;;0.10;0.10;;;;;;;6.92;100.00;101480.97;5001575;28;20325;-74
2022/12/26 13:52:09;;;;;;;0.10;0.10;;;;;;;7.00;100.00;101479.63;5003828;28;20033;-75
2022/12/26 13:54:34;;;;;;;0.10;0.10;;;;;;;7.25;100.00;101478.31;5010601;28;20036;-75
2022/12/26 13:57:10;;;;;;;0.10;0.10;;;;;;;7.88;100.00;101482.03;5006105;28;20385;-74
2022/12/26 13:59:42;;;;;;;0.10;0.10;;;;;;;8.43;100.00;101453.06;5003693;28;20061;-74